Time;durP1;ratioP1;P1;durP2;ratioP2;P2;SDS_P1;SDS_P2;PMS_P1;PMS_P2;Temp;Humidity;BMP_temperature;BMP_pressure;BME280_temperature;BME280_humidity;BME280_pressure;Samples;Min_cycle;Max_cycle;Signal;HPM_P1;HPM_P2
2022/08/11 00:00:36;;;;;;;4.18;1.52;;;;;;;27.57;43.29;101530.06;4844436;29;20049;-56
2022/08/11 00:03:09;;;;;;;5.07;1.58;;;;;;;27.34;43.64;101531.88;4843575;29;20034;-56
2022/08/11 00:05:47;;;;;;;4.80;1.27;;;;;;;27.31;43.86;101530.53;4843601;29;20030;-55
2022/08/11 00:08:28;;;;;;;3.63;1.75;;;;;;;27.16;43.98;101530.00;4843556;29;20034;-55
2022/08/11 00:10:58;;;;;;;4.75;1.40;;;;;;;27.37;44.01;101523.00;4843432;29;20058;-56
2022/08/11 00:13:37;;;;;;;3.72;1.58;;;;;;;26.34;45.29;101520.19;4843160;29;20113;-56
2022/08/11 00:16:10;;;;;;;4.30;1.42;;;;;;;26.38;46.58;101521.25;4843534;29;20540;-56
2022/08/11 00:18:45;;;;;;;3.20;1.40;;;;;;;26.51;45.36;101519.72;4843219;29;20128;-56
2022/08/11 00:21:12;;;;;;;4.03;1.40;;;;;;;26.52;45.83;101515.84;4843409;29;20101;-56
2022/08/11 00:24:00;;;;;;;5.47;1.77;;;;;;;26.90;45.64;101513.91;4843733;29;20584;-56
2022/08/11 00:26:27;;;;;;;2.72;1.13;;;;;;;26.46;45.56;101512.38;4843197;29;20037;-57
2022/08/11 00:28:55;;;;;;;3.10;1.30;;;;;;;26.51;45.46;101509.56;4843235;29;20495;-55
2022/08/11 00:31:28;;;;;;;6.60;1.75;;;;;;;26.07;46.18;101507.13;4842986;29;20487;-56
2022/08/11 00:33:57;;;;;;;2.50;1.27;;;;;;;26.64;45.95;101502.50;4843230;29;20042;-57
2022/08/11 00:36:38;;;;;;;13.40;2.00;;;;;;;26.72;45.65;101506.50;4844236;29;20177;-57
2022/08/11 00:39:07;;;;;;;4.75;1.75;;;;;;;26.59;44.92;101497.06;4843042;29;20026;-57
2022/08/11 00:41:45;;;;;;;4.28;1.60;;;;;;;26.55;45.69;101499.63;4842047;29;20030;-57
2022/08/11 00:44:37;;;;;;;5.38;1.30;;;;;;;26.85;45.40;101498.31;4842785;29;20530;-57
2022/08/11 00:47:30;;;;;;;2.33;1.48;;;;;;;26.72;45.80;101501.84;4842787;29;20517;-57
2022/08/11 00:50:36;;;;;;;3.92;1.40;;;;;;;27.00;45.05;101494.50;4842811;29;20040;-57
2022/08/11 00:53:29;;;;;;;2.10;1.33;;;;;;;26.56;44.82;101489.44;4777501;29;20142;-58
2022/08/11 00:56:20;;;;;;;2.17;1.15;;;;;;;26.64;44.60;101488.75;4842728;29;20056;-57
2022/08/11 00:59:10;;;;;;;8.40;1.58;;;;;;;26.42;46.22;101478.38;4842952;29;20117;-57
2022/08/11 01:01:37;;;;;;;2.78;1.33;;;;;;;26.50;45.62;101480.47;4842621;29;20387;-57
2022/08/11 01:04:47;;;;;;;2.05;1.30;;;;;;;26.77;45.14;101476.22;4842584;29;20029;-57
2022/08/11 01:07:51;;;;;;;1.75;1.30;;;;;;;27.07;45.23;101481.22;4814479;29;20093;-57
2022/08/11 01:10:46;;;;;;;3.33;1.42;;;;;;;26.95;45.14;101474.53;4786568;29;20050;-57
2022/08/11 01:13:21;;;;;;;4.45;1.20;;;;;;;26.80;45.28;101470.94;4842700;29;20044;-58
2022/08/11 01:16:24;;;;;;;2.80;1.40;;;;;;;26.80;44.72;101470.13;4842525;29;20065;-57
2022/08/11 01:19:07;;;;;;;3.85;1.45;;;;;;;26.84;44.88;101468.41;4842634;29;20056;-58
2022/08/11 01:21:51;;;;;;;6.57;1.27;;;;;;;26.58;44.87;101459.75;4842434;29;20193;-57
2022/08/11 01:24:49;;;;;;;1.60;1.25;;;;;;;26.49;45.96;101456.06;4843080;29;20034;-57
2022/08/11 01:27:21;;;;;;;2.42;1.40;;;;;;;26.82;44.71;101459.66;4842407;29;20037;-57
2022/08/11 01:30:22;;;;;;;3.85;1.70;;;;;;;26.55;45.39;101457.63;4842324;29;20513;-57
2022/08/11 01:33:09;;;;;;;3.38;1.42;;;;;;;26.16;46.80;101461.47;4803855;29;20185;-57
2022/08/11 01:35:58;;;;;;;2.45;1.67;;;;;;;26.10;46.89;101457.16;4840141;29;20041;-57
2022/08/11 01:38:36;;;;;;;3.28;1.67;;;;;;;26.14;46.04;101460.09;4842644;29;20038;-64
2022/08/11 01:41:21;;;;;;;3.72;1.10;;;;;;;26.07;45.12;101463.22;4842136;29;20083;-59
2022/08/11 01:47:49;;;;;;;2.80;1.10;;;;;;;25.72;45.39;101459.00;4842412;29;20057;-59
2022/08/11 01:50:17;;;;;;;2.63;1.40;;;;;;;26.06;45.13;101469.81;4841899;29;20049;-59
2022/08/11 01:53:20;;;;;;;2.70;1.02;;;;;;;25.97;43.96;101472.41;4845385;29;20081;-59
2022/08/11 01:56:04;;;;;;;1.50;0.80;;;;;;;25.70;44.76;101463.94;4846028;29;20491;-59
2022/08/11 01:58:42;;;;;;;2.70;1.08;;;;;;;25.79;45.01;101465.78;4845920;29;20042;-60
2022/08/11 02:01:45;;;;;;;3.80;1.00;;;;;;;25.90;44.17;101471.13;4845773;29;20556;-59
2022/08/11 02:04:35;;;;;;;5.47;1.10;;;;;;;25.81;45.32;101468.22;4845724;29;20037;-59
2022/08/11 02:07:10;;;;;;;2.30;1.00;;;;;;;25.63;45.02;101475.25;4845929;29;20022;-59
2022/08/11 02:13:14;;;;;;;3.42;0.80;;;;;;;25.89;43.53;101472.25;4846761;29;20040;-59
2022/08/11 02:16:03;;;;;;;2.75;0.77;;;;;;;25.52;44.23;101471.81;4845506;29;20030;-59
2022/08/11 02:24:30;;;;;;;2.45;0.70;;;;;;;24.97;45.16;101487.66;4845684;29;20130;-57
2022/08/11 02:27:24;;;;;;;2.33;0.88;;;;;;;24.75;44.85;101490.03;4845306;29;20062;-58
2022/08/11 02:30:16;;;;;;;1.00;0.63;;;;;;;24.59;45.47;101492.06;4845306;29;20167;-58
2022/08/11 02:33:23;;;;;;;2.85;0.82;;;;;;;24.74;45.21;101493.88;4845919;29;20086;-58
2022/08/11 02:36:10;;;;;;;1.60;0.80;;;;;;;24.98;44.73;101496.69;4828603;29;20097;-58
2022/08/11 02:38:53;;;;;;;4.22;0.82;;;;;;;24.88;44.33;101497.63;4845448;29;20044;-58
2022/08/11 02:44:30;;;;;;;1.13;0.60;;;;;;;24.90;44.84;101500.88;4844970;29;20065;-58
2022/08/11 02:47:08;;;;;;;1.48;0.80;;;;;;;24.34;45.47;101495.75;4845641;29;20038;-58
2022/08/11 02:49:59;;;;;;;2.38;0.70;;;;;;;23.95;46.63;101509.34;4844908;29;20085;-57
2022/08/11 02:52:46;;;;;;;4.40;0.70;;;;;;;23.69;46.39;101511.34;4844372;29;20048;-58
2022/08/11 02:55:42;;;;;;;1.42;0.80;;;;;;;23.35;47.28;101505.63;4844846;29;20105;-58
2022/08/11 02:58:25;;;;;;;2.03;0.70;;;;;;;23.37;46.63;101508.91;4816247;29;20138;-58
2022/08/11 03:01:18;;;;;;;1.55;0.63;;;;;;;23.04;48.11;101519.31;4844750;29;20034;-58
2022/08/11 03:03:50;;;;;;;2.05;0.80;;;;;;;23.05;47.48;101528.34;4844282;29;20082;-57
2022/08/11 03:06:32;;;;;;;1.55;0.80;;;;;;;22.93;47.31;101531.31;4844834;29;20041;-57
2022/08/11 03:09:10;;;;;;;2.88;0.70;;;;;;;22.74;48.24;101528.25;4844624;29;20138;-57
2022/08/11 03:17:39;;;;;;;3.08;0.77;;;;;;;22.33;50.12;101532.81;4844866;29;20125;-57
2022/08/11 03:20:08;;;;;;;1.55;0.60;;;;;;;22.30;50.28;101536.88;4844390;29;20037;-57
2022/08/11 03:23:29;;;;;;;2.63;0.90;;;;;;;22.45;49.58;101541.56;4844366;29;20029;-58
2022/08/11 03:26:18;;;;;;;1.83;0.75;;;;;;;22.14;50.64;101540.63;4829077;29;20070;-58
2022/08/11 03:28:50;;;;;;;2.78;0.82;;;;;;;22.06;50.95;101541.94;4843944;29;20044;-58
2022/08/11 03:31:33;;;;;;;1.20;0.70;;;;;;;21.86;51.37;101545.38;4844279;29;20163;-57
2022/08/11 03:34:10;;;;;;;1.40;0.70;;;;;;;21.71;52.01;101533.56;4844090;29;20171;-57
2022/08/11 03:36:53;;;;;;;1.55;0.93;;;;;;;21.64;52.57;101550.16;4843975;29;20026;-57
2022/08/11 03:39:24;;;;;;;1.33;0.60;;;;;;;21.55;53.05;101549.03;4843958;29;20403;-57
2022/08/11 03:42:13;;;;;;;2.10;0.82;;;;;;;21.60;53.19;101549.88;4844380;29;20026;-57
2022/08/11 03:44:58;;;;;;;2.10;0.90;;;;;;;21.47;53.90;101552.22;4844044;29;20487;-56
2022/08/11 03:47:43;;;;;;;2.17;0.80;;;;;;;21.60;53.87;101552.59;4844492;29;20415;-56
2022/08/11 03:50:40;;;;;;;1.40;0.93;;;;;;;21.71;53.53;101553.50;4843943;29;20078;-56
2022/08/11 03:53:10;;;;;;;1.52;1.08;;;;;;;21.82;53.37;101544.28;4844106;29;20030;-56
2022/08/11 03:56:13;;;;;;;2.65;0.80;;;;;;;21.56;54.24;101558.81;4844377;29;20380;-56
2022/08/11 03:59:16;;;;;;;0.68;0.57;;;;;;;21.57;53.71;101558.56;4843693;29;20033;-56
2022/08/11 04:02:05;;;;;;;1.85;0.80;;;;;;;21.44;54.43;101555.47;4843917;29;20068;-57
2022/08/11 04:04:56;;;;;;;2.67;0.75;;;;;;;21.43;54.91;101554.66;4843602;29;20030;-56
2022/08/11 04:07:47;;;;;;;2.00;1.10;;;;;;;21.56;54.52;101565.09;4843689;29;20044;-56
2022/08/11 04:10:34;;;;;;;1.73;0.90;;;;;;;21.48;54.86;101571.00;4843475;29;20074;-56
2022/08/11 04:13:28;;;;;;;3.00;1.00;;;;;;;21.45;54.74;101574.28;4843833;29;20030;-56
2022/08/11 04:16:01;;;;;;;5.97;0.98;;;;;;;21.46;54.90;101573.19;4843901;29;20482;-56
2022/08/11 04:18:51;;;;;;;1.95;0.90;;;;;;;21.46;55.06;101581.34;4843189;29;20038;-56
2022/08/11 04:21:35;;;;;;;3.70;0.80;;;;;;;21.18;55.81;101585.19;4843616;29;20030;-56
2022/08/11 04:24:18;;;;;;;3.50;0.70;;;;;;;21.02;56.46;101583.41;4843446;29;20048;-56
2022/08/11 04:27:12;;;;;;;2.08;0.77;;;;;;;21.08;56.38;101580.47;4843153;29;20383;-56
2022/08/11 04:30:04;;;;;;;2.33;0.82;;;;;;;21.04;56.22;101587.53;4843282;29;20029;-56
2022/08/11 04:32:54;;;;;;;1.65;0.90;;;;;;;21.06;56.61;101584.53;4826592;29;20026;-56
2022/08/11 04:35:42;;;;;;;1.33;0.70;;;;;;;20.97;56.67;101586.06;4843354;29;20033;-56
2022/08/11 04:38:57;;;;;;;3.15;0.88;;;;;;;20.91;56.67;101587.91;4843178;29;20097;-56
2022/08/11 04:45:25;;;;;;;1.15;0.80;;;;;;;20.73;57.74;101597.25;4843224;29;20111;-56
2022/08/11 05:01:40;;;;;;;1.25;1.10;;;;;;;20.50;58.83;101605.69;4842699;29;20118;-56
2022/08/11 05:07:34;;;;;;;3.08;1.10;;;;;;;20.50;58.79;101608.41;4842724;29;20072;-56
2022/08/11 05:10:15;;;;;;;1.42;0.68;;;;;;;20.25;59.67;101606.97;4843069;29;20037;-56
2022/08/11 05:36:01;;;;;;;1.85;0.90;;;;;;;19.97;60.34;101621.53;4842537;29;19923;-56
2022/08/11 05:58:04;;;;;;;1.58;0.70;;;;;;;19.73;60.87;101615.47;4842219;29;20041;-56
2022/08/11 06:00:40;;;;;;;1.83;0.80;;;;;;;19.68;60.65;101615.41;4842005;29;20077;-56
2022/08/11 06:03:09;;;;;;;2.58;0.70;;;;;;;19.89;59.75;101610.28;4842053;29;20036;-56
2022/08/11 06:05:38;;;;;;;1.30;0.60;;;;;;;19.87;59.64;101606.97;4842049;29;20022;-56
2022/08/11 06:08:09;;;;;;;1.83;0.80;;;;;;;19.72;60.65;101602.97;4841939;29;20097;-56
2022/08/11 06:10:38;;;;;;;2.22;0.82;;;;;;;19.82;60.04;101609.59;4841820;29;20040;-56
2022/08/11 06:13:06;;;;;;;2.35;0.85;;;;;;;19.75;60.00;101612.50;4841726;29;20484;-56
2022/08/11 06:15:42;;;;;;;2.10;0.80;;;;;;;19.73;60.21;101612.75;4841786;29;20030;-56
2022/08/11 06:18:11;;;;;;;1.00;0.80;;;;;;;19.71;60.41;101609.47;4841751;29;20042;-56
2022/08/11 06:20:59;;;;;;;3.47;1.30;;;;;;;19.79;60.48;101616.38;4841631;29;20026;-57
2022/08/11 06:23:31;;;;;;;2.80;1.17;;;;;;;19.69;61.92;101611.59;4841733;29;20417;-56
2022/08/11 06:25:59;;;;;;;3.22;1.20;;;;;;;19.63;62.16;101609.88;4841723;29;20034;-56
2022/08/11 06:28:31;;;;;;;3.50;1.33;;;;;;;19.61;62.77;101606.59;4841596;29;20057;-57
2022/08/11 06:30:59;;;;;;;5.18;1.67;;;;;;;19.76;63.56;101603.28;4841565;29;20552;-56
2022/08/11 06:33:42;;;;;;;3.33;1.33;;;;;;;19.66;64.51;101608.56;4841766;29;20026;-56
2022/08/11 06:36:33;;;;;;;3.30;1.52;;;;;;;19.56;64.85;101603.78;4841679;29;20084;-56
2022/08/11 06:39:12;;;;;;;2.65;1.23;;;;;;;19.40;65.62;101599.97;4842895;29;20048;-56
2022/08/11 06:41:58;;;;;;;5.07;1.60;;;;;;;19.34;66.34;101602.88;4845089;29;20030;-56
2022/08/11 06:44:31;;;;;;;4.15;1.42;;;;;;;19.39;65.99;101603.78;4845104;29;20042;-56
2022/08/11 06:47:06;;;;;;;3.47;1.25;;;;;;;19.15;65.98;101603.06;4844913;29;20045;-56
2022/08/11 06:52:34;;;;;;;3.45;1.33;;;;;;;19.16;65.95;101596.59;4845647;29;20173;-56
2022/08/11 06:55:06;;;;;;;3.75;1.27;;;;;;;19.19;65.93;101606.13;4845241;29;20030;-56
2022/08/11 07:00:27;;;;;;;4.25;1.48;;;;;;;19.22;67.34;101601.03;4845497;29;20402;-56
2022/08/11 07:03:11;;;;;;;5.28;1.58;;;;;;;19.25;67.24;101605.97;4845183;29;20055;-56
2022/08/11 07:05:42;;;;;;;4.53;1.90;;;;;;;19.05;67.75;101605.63;4844929;29;20479;-56
2022/08/11 07:17:42;;;;;;;3.47;1.80;;;;;;;18.66;69.81;101599.97;4844735;29;19927;-56
2022/08/11 07:28:59;;;;;;;5.30;1.42;;;;;;;18.49;70.47;101596.38;4844319;29;20041;-56
2022/08/11 07:31:44;;;;;;;7.72;1.77;;;;;;;18.45;70.33;101604.16;4844182;29;20022;-56
2022/08/11 07:34:22;;;;;;;4.80;2.45;;;;;;;18.33;70.48;101595.25;4844481;29;20036;-56
2022/08/11 07:37:12;;;;;;;6.45;1.63;;;;;;;18.25;71.13;101600.19;4844978;29;20069;-56
2022/08/11 07:39:41;;;;;;;5.10;1.75;;;;;;;18.15;71.62;101607.03;4844265;29;20042;-56
2022/08/11 07:42:12;;;;;;;4.82;1.80;;;;;;;18.28;70.95;101600.56;4844027;29;20046;-56
2022/08/11 07:53:02;;;;;;;4.55;1.70;;;;;;;17.97;71.94;101596.34;4844183;29;19923;-56
2022/08/11 07:55:33;;;;;;;5.18;1.80;;;;;;;17.98;72.65;101595.28;4843814;29;20029;-56
2022/08/11 08:20:15;;;;;;;5.13;1.83;;;;;;;17.69;73.69;101595.13;4843937;29;20319;-56
2022/08/11 08:22:43;;;;;;;5.95;2.30;;;;;;;17.70;73.70;101601.38;4843536;29;20038;-56
2022/08/11 08:25:10;;;;;;;6.03;2.20;;;;;;;17.71;73.91;101585.94;4843568;29;20502;-56
2022/08/11 08:27:38;;;;;;;5.10;2.33;;;;;;;17.85;73.80;101592.81;4843234;29;20038;-56
2022/08/11 08:32:51;;;;;;;4.28;2.00;;;;;;;17.75;74.77;101584.44;4843611;29;20041;-56
2022/08/11 08:35:18;;;;;;;5.55;2.28;;;;;;;17.71;75.09;101591.34;4843145;29;20062;-56
2022/08/11 08:37:44;;;;;;;6.10;1.95;;;;;;;17.66;74.94;101584.78;4842954;29;20167;-56
2022/08/11 08:40:14;;;;;;;7.90;2.05;;;;;;;17.60;75.54;101585.72;4842995;29;20093;-56
2022/08/11 08:42:54;;;;;;;3.90;2.30;;;;;;;17.56;75.68;101583.72;4843002;29;20379;-56
2022/08/11 08:45:22;;;;;;;4.90;2.05;;;;;;;17.32;77.05;101589.09;4842982;29;20518;-56
2022/08/11 08:47:58;;;;;;;3.90;2.10;;;;;;;17.50;76.44;101588.19;4842960;29;20097;-56
2022/08/11 08:51:33;;;;;;;6.70;2.45;;;;;;;17.45;76.11;101582.66;4842869;29;20041;-56
2022/08/11 08:53:23;;;;;;;3.35;2.20;;;;;;;17.35;76.60;101576.97;4842725;29;20040;-56
2022/08/11 08:55:51;;;;;;;8.27;2.67;;;;;;;17.26;76.72;101583.78;4843004;29;20030;-56
2022/08/11 08:58:20;;;;;;;7.47;2.33;;;;;;;17.13;77.46;101579.41;4842575;29;20431;-56
2022/08/11 09:00:50;;;;;;;5.43;2.33;;;;;;;17.04;78.01;101578.91;4842244;29;20030;-56
2022/08/11 09:03:18;;;;;;;4.50;2.13;;;;;;;17.14;77.65;101581.88;4842595;29;20113;-56
2022/08/11 09:05:46;;;;;;;5.07;2.50;;;;;;;17.09;77.53;101583.63;4842526;29;20042;-56
2022/08/11 09:08:13;;;;;;;4.00;2.45;;;;;;;16.93;78.73;101584.28;4842616;29;20032;-56
2022/08/11 09:10:40;;;;;;;7.78;2.90;;;;;;;17.13;78.06;101576.69;4842450;29;20170;-56
2022/08/11 09:13:07;;;;;;;7.75;2.65;;;;;;;17.12;77.55;101578.59;4842793;29;20029;-56
2022/08/11 09:15:36;;;;;;;7.68;2.90;;;;;;;16.96;78.67;101573.00;4842585;29;20034;-56
2022/08/11 09:18:05;;;;;;;5.45;3.25;;;;;;;17.07;77.97;101577.63;4842612;29;20026;-56
2022/08/11 09:20:37;;;;;;;5.63;2.70;;;;;;;17.11;77.56;101574.22;4842639;29;20114;-56
2022/08/11 09:28:45;;;;;;;8.02;2.75;;;;;;;17.13;77.83;101577.53;4842667;29;20067;-56
2022/08/11 09:31:13;;;;;;;6.68;2.83;;;;;;;17.02;78.67;101589.13;4842073;29;20106;-56
2022/08/11 09:33:41;;;;;;;3.25;2.58;;;;;;;17.02;78.27;101583.72;4842419;29;20602;-56
2022/08/11 09:41:40;;;;;;;5.80;2.72;;;;;;;17.18;77.96;101589.53;4842822;29;20044;-56
2022/08/11 09:46:58;;;;;;;6.75;2.38;;;;;;;17.23;77.82;101584.25;4842487;29;20514;-56
2022/08/11 09:49:26;;;;;;;9.15;2.55;;;;;;;17.21;77.30;101591.75;4842715;29;20060;-56
2022/08/11 09:51:54;;;;;;;5.88;3.00;;;;;;;17.13;77.39;101590.22;4842516;29;20387;-56
2022/08/11 09:54:22;;;;;;;5.28;2.42;;;;;;;17.03;77.54;101589.97;4841951;29;20025;-56
2022/08/11 09:59:35;;;;;;;5.22;2.72;;;;;;;17.00;77.93;101579.63;4841986;29;20559;-56
2022/08/11 10:02:04;;;;;;;5.35;2.95;;;;;;;17.20;77.27;101585.53;4842428;29;20059;-55
2022/08/11 10:04:44;;;;;;;5.97;2.65;;;;;;;16.81;79.16;101582.34;4842249;29;20109;-56
2022/08/11 10:07:18;;;;;;;4.57;2.72;;;;;;;17.06;77.92;101573.28;4841836;29;20034;-56
2022/08/11 10:10:01;;;;;;;8.75;3.03;;;;;;;16.96;78.59;101573.00;4842465;29;20507;-56
2022/08/11 10:12:36;;;;;;;8.40;3.60;;;;;;;16.94;78.95;101580.53;4842675;29;20034;-56
2022/08/11 10:20:44;;;;;;;7.78;3.22;;;;;;;16.99;79.32;101575.25;4846089;29;20057;-56
2022/08/11 10:28:43;;;;;;;6.80;2.63;;;;;;;17.05;78.86;101574.34;4845842;29;20102;-56
2022/08/11 10:34:04;;;;;;;8.50;3.30;;;;;;;17.20;78.00;101577.41;4845897;29;20143;-56
2022/08/11 10:36:41;;;;;;;5.68;3.08;;;;;;;17.13;77.81;101571.28;4845362;29;20044;-56
2022/08/11 10:39:08;;;;;;;7.18;2.95;;;;;;;17.20;77.73;101568.47;4845158;29;20030;-56
2022/08/11 10:44:21;;;;;;;7.85;3.10;;;;;;;17.23;78.31;101568.84;4845406;29;20559;-56
2022/08/11 10:49:33;;;;;;;;;;;;;;;17.25;78.19;101564.03;4846147;29;20129;-56
2022/08/11 11:00:17;;;;;;;6.35;3.20;;;;;;;16.95;79.62;101571.38;4845273;29;20090;-56
2022/08/11 11:02:45;;;;;;;6.80;2.90;;;;;;;17.02;79.58;101562.09;4844784;29;20037;-56
2022/08/11 11:05:20;;;;;;;6.70;2.85;;;;;;;17.13;78.87;101560.47;4844877;29;20034;-56
2022/08/11 11:08:02;;;;;;;7.70;3.28;;;;;;;16.98;79.17;101544.66;4844784;29;20113;-56
2022/08/11 11:10:31;;;;;;;9.50;3.05;;;;;;;16.79;79.57;101557.44;4844692;29;20136;-56
2022/08/11 11:18:36;;;;;;;4.57;2.65;;;;;;;16.91;78.59;101554.75;4844583;29;20045;-56
2022/08/11 11:21:06;;;;;;;6.50;2.60;;;;;;;16.84;78.55;101543.22;4844352;29;20041;-56
2022/08/11 11:23:46;;;;;;;6.55;3.22;;;;;;;16.78;79.07;101552.25;4844351;29;20163;-56
2022/08/11 11:26:13;;;;;;;5.35;3.15;;;;;;;16.93;78.35;101549.13;4844338;29;20042;-56
2022/08/11 11:28:54;;;;;;;9.57;3.38;;;;;;;16.91;78.44;101549.34;4844346;29;20113;-56
2022/08/11 11:31:30;;;;;;;8.30;3.45;;;;;;;16.99;78.17;101554.47;4844342;29;20037;-56
2022/08/11 11:34:02;;;;;;;6.45;3.58;;;;;;;16.97;78.63;101540.31;4844470;29;20105;-56
2022/08/11 11:36:46;;;;;;;8.02;3.72;;;;;;;16.92;78.84;101545.59;4844145;29;20479;-56
2022/08/11 11:39:16;;;;;;;6.90;3.78;;;;;;;16.94;78.59;101546.22;4844720;29;20121;-56
2022/08/11 11:41:42;;;;;;;7.78;4.05;;;;;;;16.94;78.71;101543.50;4844132;29;20387;-56
2022/08/11 11:44:12;;;;;;;8.20;4.05;;;;;;;17.00;77.95;101547.97;4843816;29;20030;-56
2022/08/11 11:46:40;;;;;;;5.25;3.38;;;;;;;17.16;77.88;101551.91;4844037;29;20037;-56
2022/08/11 11:49:08;;;;;;;6.40;2.90;;;;;;;16.94;78.49;101551.63;4844043;29;20022;-56
2022/08/11 11:51:36;;;;;;;6.55;2.67;;;;;;;17.17;78.27;101552.72;4843930;29;20037;-56
2022/08/11 11:54:04;;;;;;;7.43;3.45;;;;;;;17.22;77.53;101555.56;4843891;29;20078;-56
2022/08/11 11:56:32;;;;;;;5.90;3.28;;;;;;;17.13;78.13;101553.19;4843949;29;20038;-56
2022/08/11 12:01:43;;;;;;;7.07;3.50;;;;;;;17.24;77.51;101548.03;4843897;29;20037;-56
2022/08/11 12:04:12;;;;;;;6.05;3.38;;;;;;;17.24;76.86;101550.72;4843671;29;20033;-56
2022/08/11 12:06:40;;;;;;;8.30;3.70;;;;;;;16.96;77.81;101554.09;4843879;29;20037;-56
2022/08/11 12:09:07;;;;;;;9.25;3.67;;;;;;;17.09;77.16;101557.41;4843789;29;20026;-56
2022/08/11 12:14:20;;;;;;;7.60;3.13;;;;;;;17.17;76.97;101560.84;4843934;29;20056;-56
2022/08/11 12:16:47;;;;;;;7.18;3.55;;;;;;;16.97;77.60;101553.84;4843424;29;20033;-56
2022/08/11 12:19:21;;;;;;;6.53;3.28;;;;;;;16.94;77.89;101548.09;4843494;29;20512;-56
2022/08/11 12:27:21;;;;;;;6.75;3.88;;;;;;;16.87;77.33;101540.88;4843784;29;20102;-56
2022/08/11 12:29:54;;;;;;;7.88;3.75;;;;;;;16.85;77.76;101540.28;4844140;29;20466;-56
2022/08/11 12:32:31;;;;;;;5.53;3.78;;;;;;;16.93;77.13;101533.72;4843220;29;20065;-56
2022/08/11 12:34:58;;;;;;;5.25;3.20;;;;;;;16.80;77.67;101539.34;4843297;29;20041;-57
2022/08/11 12:37:47;;;;;;;4.57;3.38;;;;;;;16.72;78.47;101540.50;4842107;29;20030;-57
2022/08/11 12:46:18;;;;;;;6.15;3.70;;;;;;;16.87;77.96;101537.34;4843015;29;20563;-57
2022/08/11 12:51:57;;;;;;;7.63;3.47;;;;;;;16.87;77.29;101550.88;4843572;29;20044;-56
2022/08/11 12:54:39;;;;;;;9.10;3.58;;;;;;;16.83;77.57;101550.53;4842787;29;20052;-56
2022/08/11 13:05:37;;;;;;;7.15;3.33;;;;;;;16.80;77.48;101556.38;4842876;29;20054;-56
2022/08/11 13:08:05;;;;;;;8.13;2.92;;;;;;;16.76;77.29;101551.66;4842424;29;20048;-56
2022/08/11 13:13:21;;;;;;;;;;;;;;;16.73;77.15;101568.34;4843101;29;20096;-56
2022/08/11 13:15:48;;;;;;;7.82;2.88;;;;;;;16.76;77.27;101562.47;4842728;29;19916;-56
2022/08/11 13:18:22;;;;;;;5.47;2.72;;;;;;;16.86;77.10;101568.16;4842154;29;20041;-56
2022/08/11 13:20:57;;;;;;;3.30;2.60;;;;;;;16.84;76.55;101571.09;4841915;29;20034;-56
2022/08/11 13:23:25;;;;;;;4.82;2.70;;;;;;;16.97;76.28;101575.47;4842692;29;20477;-56
2022/08/11 13:25:54;;;;;;;3.05;2.63;;;;;;;16.96;76.03;101573.84;4842461;29;20033;-58
2022/08/11 13:28:22;;;;;;;7.38;2.70;;;;;;;16.96;75.88;101581.13;4842390;29;20056;-58
2022/08/11 13:31:11;;;;;;;4.90;2.97;;;;;;;17.03;76.04;101577.25;4842366;29;20093;-56
2022/08/11 13:33:48;;;;;;;5.35;2.88;;;;;;;16.98;75.37;101593.34;4826496;29;20026;-57
2022/08/11 13:36:19;;;;;;;6.75;2.78;;;;;;;17.04;75.81;101597.84;4842946;29;20082;-59
2022/08/11 13:38:47;;;;;;;5.32;2.90;;;;;;;17.03;75.44;101595.38;4826681;29;20034;-58
2022/08/11 13:43:58;;;;;;;5.57;2.70;;;;;;;17.05;75.59;101588.69;4842073;29;20041;-58
2022/08/11 13:46:27;;;;;;;8.50;2.67;;;;;;;17.09;75.51;101587.16;4842168;29;20038;-58
2022/08/11 13:48:56;;;;;;;7.60;2.80;;;;;;;17.22;74.84;101590.72;4841797;29;20460;-57
2022/08/11 13:51:29;;;;;;;9.05;2.85;;;;;;;16.98;75.16;101592.53;4842240;29;20033;-58
2022/08/11 13:54:04;;;;;;;3.05;2.30;;;;;;;17.00;75.29;101598.53;4842038;29;20026;-57
2022/08/11 13:56:32;;;;;;;5.22;2.40;;;;;;;17.08;74.81;101599.03;4842150;29;20034;-58
2022/08/11 13:59:00;;;;;;;5.65;2.65;;;;;;;17.25;74.95;101604.59;4841863;29;20038;-58
2022/08/11 14:01:34;;;;;;;3.40;2.42;;;;;;;17.22;74.78;101605.09;4841954;29;20388;-57
2022/08/11 14:04:09;;;;;;;5.37;2.40;;;;;;;17.15;75.04;101605.16;4842166;29;20041;-56
2022/08/11 14:06:40;;;;;;;7.55;2.55;;;;;;;17.23;74.81;101605.91;4841927;29;20030;-56
2022/08/11 14:09:10;;;;;;;6.90;2.83;;;;;;;17.26;74.81;101610.84;4841950;29;20034;-56
2022/08/11 14:14:31;;;;;;;4.20;2.20;;;;;;;17.46;73.76;101616.78;4842481;29;20162;-56
2022/08/11 14:17:03;;;;;;;4.38;2.33;;;;;;;17.45;73.28;101619.72;4841898;29;20034;-56
2022/08/11 14:19:31;;;;;;;3.22;1.92;;;;;;;17.38;73.99;101620.66;4841730;29;20612;-57
2022/08/11 14:22:08;;;;;;;5.10;2.20;;;;;;;17.38;74.22;101619.81;4841633;29;20034;-57
2022/08/11 14:24:38;;;;;;;3.13;1.88;;;;;;;17.43;73.86;101628.03;4841860;29;20117;-57
2022/08/11 14:27:10;;;;;;;4.22;2.08;;;;;;;17.42;73.79;101632.63;4841863;29;20451;-56
2022/08/11 14:29:40;;;;;;;8.05;2.33;;;;;;;17.37;74.18;101629.81;4841884;29;20112;-56
2022/08/11 14:32:08;;;;;;;5.45;2.13;;;;;;;17.64;73.52;101635.63;4841741;29;20026;-56
2022/08/11 14:34:39;;;;;;;4.95;2.70;;;;;;;17.75;72.97;101630.47;4841879;29;20038;-56
2022/08/11 14:37:11;;;;;;;6.55;2.20;;;;;;;17.59;73.07;101640.91;4841958;29;20038;-56
2022/08/11 14:47:03;;;;;;;8.13;2.63;;;;;;;17.67;72.84;101639.75;4842014;29;20453;-56
2022/08/11 14:48:17;;;;;;;5.97;2.47;;;;;;;17.99;71.52;101650.28;4841894;29;20101;-58
2022/08/11 14:50:43;;;;;;;6.72;2.35;;;;;;;18.01;71.23;101640.88;4841519;29;20030;-56
2022/08/11 14:53:11;;;;;;;4.43;1.60;;;;;;;18.00;71.53;101652.75;4841600;29;20156;-57
2022/08/11 14:58:28;;;;;;;4.43;2.08;;;;;;;18.02;71.34;101642.50;4842018;29;20045;-57
2022/08/11 15:00:57;;;;;;;6.43;2.40;;;;;;;18.17;71.09;101651.00;4844172;29;20219;-56
2022/08/11 15:03:25;;;;;;;4.78;2.58;;;;;;;18.25;70.60;101652.50;4844791;29;20030;-57
2022/08/11 15:05:58;;;;;;;3.85;2.00;;;;;;;18.42;69.81;101647.19;4844776;29;20073;-56
2022/08/11 15:14:05;;;;;;;5.18;2.47;;;;;;;18.64;68.43;101648.19;4844700;29;20498;-56
2022/08/11 15:19:20;;;;;;;7.10;2.03;;;;;;;18.77;68.62;101649.00;4845155;29;20044;-56
2022/08/11 15:24:35;;;;;;;5.65;1.90;;;;;;;19.17;67.14;101649.81;4844930;29;20040;-57
2022/08/11 15:38:14;;;;;;;6.35;1.77;;;;;;;19.45;64.24;101670.66;4844442;29;20094;-57
2022/08/11 15:46:30;;;;;;;4.75;1.63;;;;;;;19.87;63.90;101678.44;4844043;29;20470;-59
2022/08/11 15:49:42;;;;;;;2.80;1.60;;;;;;;19.90;63.26;101680.66;4843990;29;20029;-58
2022/08/11 15:52:12;;;;;;;5.95;2.08;;;;;;;19.80;62.84;101682.41;4769834;30;20559;-57
2022/08/11 15:54:42;;;;;;;4.28;2.35;;;;;;;19.87;63.44;101674.91;4769646;30;20036;-59
2022/08/11 16:04:09;;;;;;;5.60;1.67;;;;;;;19.82;63.38;101677.53;4808106;29;20050;-65
2022/08/11 16:05:22;;;;;;;3.05;1.92;;;;;;;20.19;62.38;101683.25;4843887;29;20030;-56
2022/08/11 16:07:52;;;;;;;4.15;1.40;;;;;;;20.27;62.25;101686.41;4843683;29;20034;-56
2022/08/11 16:10:22;;;;;;;5.32;1.50;;;;;;;20.40;62.73;101684.38;4843508;29;20026;-63
2022/08/11 16:18:39;;;;;;;2.60;1.33;;;;;;;20.73;60.97;101669.88;4843545;29;20121;-59
2022/08/11 16:21:15;;;;;;;3.90;1.60;;;;;;;20.82;60.15;101671.06;4843849;29;20498;-59
2022/08/11 16:23:45;;;;;;;3.50;1.58;;;;;;;20.73;60.75;101669.88;4843526;29;20045;-59
2022/08/11 16:26:15;;;;;;;3.53;1.73;;;;;;;21.00;60.73;101667.22;4843487;29;20063;-59
2022/08/11 16:28:43;;;;;;;4.60;1.52;;;;;;;21.16;59.43;101663.56;4843715;29;20081;-59
2022/08/11 16:31:11;;;;;;;3.80;1.38;;;;;;;21.20;58.20;101670.13;4843273;29;20165;-59
2022/08/11 16:33:40;;;;;;;4.47;1.48;;;;;;;21.43;58.94;101669.03;4843507;29;20493;-58
2022/08/11 16:38:54;;;;;;;4.70;1.73;;;;;;;21.76;57.38;101676.09;4843799;29;20078;-58
2022/08/11 16:46:59;;;;;;;2.22;1.20;;;;;;;22.00;56.27;101665.69;4843606;29;20048;-59
2022/08/11 16:49:36;;;;;;;4.53;1.63;;;;;;;22.21;55.78;101663.09;4843204;29;20094;-58
2022/08/11 16:52:06;;;;;;;5.82;1.60;;;;;;;22.29;55.83;101663.44;4842927;29;20029;-59
2022/08/11 16:54:34;;;;;;;2.80;1.45;;;;;;;22.38;55.59;101664.59;4842873;29;20033;-58